Adams Mills, Ohio
Current Conditions -  °F | °C
As of 10:53 PM on Saturday 22 Nov 2014 (Local Time) from KZZV Reporting Station
Clear Clear  
Wind Chill:   Ceiling: Unl
Heat Index:   Visibility: 10mi
Dew Point: -1°   Wind: 6mph
Humidity: 54%   Direction: 170°S
Pressure: 30.09"   Gusts: NA
Location:  40.1482°N, 82.0354°W
Report Text: KZZV 230353Z AUTO 17005KT 10SM CLR 08/M01 A3009 RMK AO2 SLP195 T00781011
Loading
Personal Weather Stations






























Interactive Weather Map New forecast layout! Learn more

10-Day Weather Forecast

Advertisements
Track Severe Weather on mobile